• Join FlightAware (Why Join?)
  • Login
  • US Flag 
12:07PM EDT


 

Airport Tracker/Info


-or-


 

Live Flight TrackerFlight Track Log ✈ N53NW ✈ 09-Feb-2014 ✈ KBED - KPHL

Flight Track Log - Related Links

Times and Time Zones

All times are in EST time to prevent confusion due to time zone crossing. See the N53NW flight status page for this flight to view local times or setup timezone preferences in your user account.

Time Position Orientation Groundspeed Altitude Reporting Facility
EST Latitude Longitude Course Direction KTS MPH feet Rate Location/Type
08:15AM 42.4667 -71.3167 209° Southwest 189 217 1,200  Level KA90
08:16AM 42.4000 -71.3667 209° Southwest 226 260 3,800 3,000 Climbing KA90
08:17AM 42.3314 -71.3783 187° South 237 273 9,100 4,500 Climbing Boston Center
08:18AM 42.2711 -71.3000 136° Southeast 299 344 13,700 3,120 Climbing Boston Center
08:19AM 42.2092 -71.2197 136° Southeast 307 353 15,400 2,460 Climbing Boston Center
08:20AM 42.1417 -71.1322 136° Southeast 333 383 18,800 3,120 Climbing Boston Center
08:21AM 42.0700 -71.0400 136° Southeast 359 413 21,800 1,560 Climbing Boston Center
08:22AM 41.9944 -70.9447 137° Southeast 371 427 22,000 60 Climbing Boston Center
08:23AM 41.9214 -70.8514 136° Southeast 367 422 22,000  Level Boston Center
08:24AM 41.8453 -70.7792 145° Southeast 336 387 22,000  Level Boston Center
08:25AM 41.7764 -70.8119 200° South 266 306 22,000  Level Boston Center
08:26AM 41.7139 -70.8547 207° Southwest 256 295 22,000  Level Boston Center
08:27AM 41.6497 -70.8956 205° Southwest 256 295 22,000  Level Boston Center
08:28AM 41.5861 -70.9383 207° Southwest 256 295 22,000  Level Boston Center
08:29AM 41.5311 -70.9922 216° Southwest 253 291 22,000  Level Boston Center
08:30AM 41.4803 -71.0736 230° Southwest 240 276 22,000  Level Boston Center
08:32AM 41.4367 -71.1414 229° Southwest 242 278 22,000  Level Boston Center
08:33AM 41.3950 -71.2103 231° Southwest 241 277 22,000  Level Boston Center
08:34AM 41.3550 -71.2747 230° Southwest 241 277 22,000  Level Boston Center
08:35AM 41.3117 -71.3433 230° Southwest 242 278 22,000  Level Boston Center
08:36AM 41.2669 -71.4178 231° Southwest 242 278 22,000  Level Boston Center
08:37AM 41.2239 -71.4869 230° Southwest 244 281 22,000  Level Boston Center
08:38AM 41.1803 -71.5567 230° Southwest 245 282 22,000  Level Boston Center
08:39AM 41.1394 -71.6217 230° Southwest 245 282 22,000  Level Boston Center
08:40AM 41.0958 -71.6906 230° Southwest 244 281 22,000  Level Boston Center
08:41AM 41.0528 -71.7606 231° Southwest 245 282 22,000  Level Boston Center
08:42AM 41.0094 -71.8297 230° Southwest 244 281 22,000  Level Boston Center
08:43AM 40.9614 -71.9028 229° Southwest 247 284 22,000  Level Boston Center
08:44AM 40.9172 -71.9733 230° Southwest 249 287 22,000  Level Boston Center
08:45AM 40.8722 -72.0436 230° Southwest 251 289 22,000  Level Boston Center
08:46AM 40.8275 -72.1147 230° Southwest 252 290 22,000  Level Boston Center
08:47AM 40.7831 -72.1864 231° Southwest 252 290 22,000  Level Boston Center
08:48AM 40.7331 -72.2639 230° Southwest 253 291 22,000  Level Boston Center
08:49AM 40.6883 -72.3356 231° Southwest 254 292 22,000  Level Boston Center
08:50AM 40.6422 -72.4050 229° Southwest 253 291 22,000  Level Boston Center
08:51AM 40.5975 -72.4761 230° Southwest 252 290 22,000  Level Boston Center
08:52AM 40.5517 -72.5467 229° Southwest 254 292 22,000 -480 Level Boston Center
08:53AM 40.5069 -72.6169 230° Southwest 253 291 21,100 -1,020 Descending Boston Center
08:54AM 40.4617 -72.6864 229° Southwest 250 288 20,000 -600 Descending Boston Center
08:55AM 40.4181 -72.7550 230° Southwest 247 284 20,000  Level Boston Center
08:56AM 40.3725 -72.8242 229° Southwest 249 287 20,000  Level Boston Center
08:57AM 40.3267 -72.8942 229° Southwest 252 290 20,000  Level Boston Center
08:57AM 40.3036 -72.9308 231° Southwest 252 290 20,000  Level New York Center
08:58AM 40.2581 -73.0008 230° Southwest 253 291 20,000  Level New York Center
08:59AM 40.2039 -73.0831 229° Southwest 250 288 20,000  Level New York Center
09:00AM 40.1594 -73.1528 230° Southwest 250 288 20,000  Level New York Center
09:01AM 40.1133 -73.2206 228° Southwest 250 288 20,000  Level New York Center
09:02AM 40.0689 -73.2900 230° Southwest 250 288 20,000  Level New York Center
09:03AM 40.0239 -73.3578 229° Southwest 249 287 20,000  Level New York Center
09:04AM 39.9769 -73.4256 228° Southwest 250 288 20,000  Level New York Center
09:05AM 39.9281 -73.5000 229° Southwest 250 288 20,000  Level New York Center
09:06AM 39.8828 -73.5689 229° Southwest 250 288 20,000  Level New York Center
09:07AM 39.8392 -73.6389 231° Southwest 250 288 20,000  Level New York Center
09:09AM 39.7958 -73.7100 232° Southwest 250 288 20,000  Level New York Center
09:10AM 39.7511 -73.7789 230° Southwest 251 289 20,000 -60 Level New York Center
09:11AM 39.7053 -73.8503 230° Southwest 257 296 19,900 -840 Descending New York Center
09:12AM 39.6586 -73.9281 232° Southwest 246 283 18,300 -1,440 Descending New York Center
09:13AM 39.6128 -73.9989 230° Southwest 245 282 17,000 -1,500 Descending New York Center
09:14AM 39.5667 -74.0711 230° Southwest 247 284 15,300 -1,500 Descending New York Center
09:15AM 39.5283 -74.1392 234° Southwest 242 278 14,000 -660 Descending New York Center
09:16AM 39.5261 -74.2225 268° West 220 253 14,000 -60 Level New York Center
09:17AM 39.5275 -74.3097 271° West 232 267 13,900  Descending New York Center
09:18AM 39.5289 -74.3892 271° West 228 262 14,000  Climbing New York Center
09:19AM 39.5300 -74.4722 271° West 233 268 13,900 -840 Descending New York Center
09:20AM 39.5308 -74.5547 271° West 231 266 12,400 -1,500 Descending New York Center
09:21AM 39.5322 -74.6342 271° West 222 255 10,900 -1,560 Descending New York Center
09:21AM 39.5333 -74.7000 271° West 219 252 9,900 -1,260 Descending Philadelphia TRACON
09:22AM 39.5333 -74.7667 270° West 215 247 8,900 -960 Descending Philadelphia TRACON
09:23AM 39.5500 -74.8500 285° West 219 252 8,000 -840 Descending Philadelphia TRACON
09:24AM 39.5667 -74.9167 288° West 217 250 7,300 -960 Descending Philadelphia TRACON
09:25AM 39.6000 -74.9833 303° West 219 252 6,100 -900 Descending Philadelphia TRACON
09:26AM 39.6333 -75.0500 303° West 217 250 5,500 -1,080 Descending Philadelphia TRACON
09:27AM 39.6667 -75.1000 311° West 209 241 4,000 -1,440 Descending Philadelphia TRACON
09:28AM 39.7167 -75.1500 322° Northwest 218 251 2,700 -1,200 Descending Philadelphia TRACON
09:29AM 39.7667 -75.1833 333° Northwest 174 200 1,700 -780 Descending Philadelphia TRACON
09:30AM 39.8167 -75.2000 346° North 159 183 1,200 -600 Descending Philadelphia TRACON
09:31AM 39.8500 -75.2167 339° North 107 123 600 -420 Descending Philadelphia TRACON
09:33AM 39.8875 -75.2381 336° Northwest 120 138 100 -300 Descending New York Center